createdAt,value
2016-02-01T20:39:44.069Z,1010.14
2016-02-01T20:40:44.073Z,1010.16
2016-02-01T20:41:44.075Z,1010.2
2016-02-01T20:42:44.078Z,1010.18
2016-02-01T20:43:44.096Z,1010.12
2016-02-01T20:44:44.145Z,1010.02
2016-02-01T20:45:44.101Z,1010.1
2016-02-01T20:46:44.104Z,1010.16
2016-02-01T20:47:44.107Z,1010.11
2016-02-01T20:48:44.109Z,1010.09
2016-02-01T20:49:44.129Z,1010.1
2016-02-01T20:50:44.132Z,1010.36
2016-02-01T20:51:44.135Z,1010.15
2016-02-01T20:52:44.137Z,1010.14
2016-02-01T20:53:44.139Z,1010.07
2016-02-01T20:54:44.145Z,1010.14
2016-02-01T20:55:44.162Z,1010.13
2016-02-01T20:56:44.165Z,1010.11
2016-02-01T20:57:44.167Z,1010.14
2016-02-01T20:58:44.170Z,1010.11
2016-02-01T20:59:44.190Z,1010.08
2016-02-01T21:01:44.197Z,1010.03
2016-02-01T21:02:44.216Z,1010.11
2016-02-01T21:03:44.203Z,1010.15
2016-02-01T21:04:44.221Z,1010.03
2016-02-01T21:05:44.224Z,1010.15
2016-02-01T21:06:44.227Z,1010.06
2016-02-01T21:07:44.245Z,1010.12
2016-02-01T21:08:44.247Z,1010.15
2016-02-01T21:09:44.250Z,1010.05
2016-02-01T21:10:44.255Z,1010.05
2016-02-01T21:11:44.258Z,1010.11
2016-02-01T21:12:44.276Z,1010.09
2016-02-01T21:13:44.281Z,1009.96
2016-02-01T21:14:44.284Z,1010.05
2016-02-01T21:15:44.287Z,1010.06
2016-02-01T21:16:44.305Z,1010.04
2016-02-01T21:17:44.307Z,1009.99
2016-02-01T21:18:44.310Z,1010.12
2016-02-01T21:19:44.322Z,1009.99
2016-02-01T21:20:44.326Z,1009.94
2016-02-01T21:21:44.328Z,1009.9
2016-02-01T21:22:44.330Z,1009.91
2016-02-01T21:23:44.350Z,1009.98
2016-02-01T21:24:44.352Z,1009.98
2016-02-01T21:25:44.355Z,1009.99
2016-02-01T21:26:44.357Z,1009.9
2016-02-01T21:27:44.375Z,1009.95
2016-02-01T21:28:44.378Z,1009.96
2016-02-01T21:29:44.397Z,1010.12
2016-02-01T21:35:45.931Z,1009.93
2016-02-01T21:36:45.937Z,1009.92
2016-02-01T21:37:45.939Z,1009.93
2016-02-01T21:38:45.942Z,1009.95
2016-02-01T21:39:45.961Z,1009.95
2016-02-01T21:40:45.965Z,1009.95
2016-02-01T21:41:45.968Z,1009.78
2016-02-01T21:42:45.971Z,1009.83
2016-02-01T21:43:45.974Z,1009.83
2016-02-01T21:44:45.992Z,1009.9
2016-02-01T21:45:45.997Z,1009.81
2016-02-01T21:46:45.999Z,1009.83
2016-02-01T21:47:46.004Z,1009.77
2016-02-01T21:48:46.007Z,1009.73
2016-02-01T21:49:46.025Z,1009.8
2016-02-01T21:50:46.027Z,1009.76
2016-02-01T21:51:46.045Z,1009.81
2016-02-01T21:52:46.034Z,1009.82
2016-02-01T21:53:46.052Z,1009.81
2016-02-01T21:54:46.055Z,1009.93
2016-02-01T21:55:46.072Z,1009.74
2016-02-01T21:56:46.077Z,1009.75
2016-02-01T21:57:46.080Z,1009.86
2016-02-01T21:58:46.083Z,1009.68
2016-02-01T21:59:46.085Z,1009.77
2016-02-01T22:06:30.090Z,1009.83
2016-02-01T22:07:30.107Z,1009.74
2016-02-01T22:08:30.109Z,1009.79
2016-02-01T22:09:30.112Z,1009.75
2016-02-01T22:10:30.116Z,1009.81
2016-02-01T22:11:30.134Z,1009.75
2016-02-01T22:12:30.136Z,1009.68
2016-02-01T22:13:30.139Z,1009.57
2016-02-01T22:14:30.141Z,1009.8
2016-02-01T22:15:30.161Z,1009.83
2016-02-01T22:16:30.163Z,1009.69
2016-02-01T22:17:30.166Z,1009.71
2016-02-01T22:18:30.169Z,1009.65
2016-02-01T22:19:30.188Z,1009.68
2016-02-01T22:20:30.190Z,1009.64
2016-02-01T22:21:30.193Z,1009.64
2016-02-01T22:22:30.205Z,1009.58
2016-02-01T22:23:30.208Z,1009.58
2016-02-01T22:24:30.210Z,1009.7
2016-02-01T22:25:30.212Z,1009.57
2016-02-01T22:26:30.231Z,1009.7
2016-02-01T22:27:30.235Z,1009.68
2016-02-01T22:28:30.238Z,1009.61
2016-02-01T22:29:30.247Z,1009.75
2016-02-01T22:35:08.155Z,1009.73
2016-02-01T22:36:08.142Z,1009.69
2016-02-01T22:37:08.145Z,1009.53
2016-02-01T22:38:08.163Z,1009.53
2016-02-01T22:39:08.167Z,1009.6
2016-02-01T22:40:08.169Z,1009.49
2016-02-01T22:41:08.172Z,1009.58
2016-02-01T22:42:08.190Z,1009.49
2016-02-01T22:43:08.194Z,1009.39
2016-02-01T22:44:08.197Z,1009.44
2016-02-01T22:45:08.200Z,1009.43
2016-02-01T22:46:08.202Z,1009.41
2016-02-01T22:47:08.219Z,1009.48
2016-02-01T22:48:08.228Z,1009.42
2016-02-01T22:49:08.230Z,1009.22
2016-02-01T22:50:08.232Z,1009.33
2016-02-01T22:51:08.235Z,1009.44
2016-02-01T22:52:08.255Z,1009.34
2016-02-01T22:53:08.257Z,1009.42
2016-02-01T22:54:08.259Z,1009.4
2016-02-01T22:55:08.262Z,1009.67
2016-02-01T22:56:08.264Z,1009.36
2016-02-01T22:57:08.283Z,1009.42
2016-02-01T22:58:08.285Z,1009.3
2016-02-01T22:59:08.383Z,1009.36
2016-02-01T23:00:08.294Z,1009.25
2016-02-01T23:01:08.297Z,1009.29
2016-02-01T23:02:08.316Z,1009.25
2016-02-01T23:03:08.319Z,1009.22
2016-02-01T23:04:08.321Z,1009.25
2016-02-01T23:05:08.324Z,1009.34
2016-02-01T23:06:08.342Z,1009.31
2016-02-01T23:07:08.344Z,1009.31
2016-02-01T23:08:08.348Z,1009.53
2016-02-01T23:09:08.351Z,1009.45
2016-02-01T23:10:08.353Z,1009.62
2016-02-01T23:11:08.356Z,1009.41
2016-02-01T23:12:08.375Z,1009.51
2016-02-01T23:13:08.379Z,1009.46
2016-02-01T23:14:08.381Z,1009.49
2016-02-01T23:15:08.384Z,1009.45
2016-02-01T23:16:08.404Z,1009.49
2016-02-01T23:17:08.407Z,1009.38
2016-02-01T23:18:08.409Z,1009.28
2016-02-01T23:19:08.412Z,1009.36
2016-02-01T23:20:08.430Z,1009.34
2016-02-01T23:21:08.432Z,1009.21
2016-02-01T23:22:08.435Z,1009.37
2016-02-01T23:23:08.437Z,1009.3
2016-02-01T23:24:08.441Z,1009.45
2016-02-01T23:25:08.460Z,1009.43
2016-02-01T23:26:08.463Z,1009.41
2016-02-01T23:27:08.465Z,1009.43
2016-02-01T23:28:08.468Z,1009.45
2016-02-01T23:29:08.478Z,1009.42
2016-02-01T23:34:22.069Z,1009.41
2016-02-01T23:35:22.072Z,1009.39
2016-02-01T23:36:22.090Z,1009.38
2016-02-01T23:37:22.092Z,1009.36
2016-02-01T23:38:22.095Z,1009.41
2016-02-01T23:39:22.097Z,1009.4
2016-02-01T23:40:22.101Z,1009.36
2016-02-01T23:41:22.120Z,1009.35
2016-02-01T23:42:22.123Z,1009.35
2016-02-01T23:43:22.126Z,1009.47
2016-02-01T23:44:22.128Z,1009.47
2016-02-01T23:45:22.147Z,1009.42
2016-02-01T23:46:22.150Z,1009.51
2016-02-01T23:47:22.154Z,1009.45
2016-02-01T23:48:22.156Z,1009.42
2016-02-01T23:49:22.173Z,1009.43
2016-02-01T23:50:22.177Z,1009.38
2016-02-01T23:51:22.180Z,1009.37
2016-02-01T23:52:22.183Z,1009.41
2016-02-01T23:53:22.185Z,1009.41
2016-02-01T23:54:22.188Z,1009.47
2016-02-01T23:55:22.208Z,1009.38
2016-02-01T23:56:22.205Z,1009.37
2016-02-01T23:57:22.207Z,1009.45
2016-02-01T23:58:22.226Z,1009.37
2016-02-01T23:59:22.230Z,1009.45
